FLE1614 CYYZ-KJFK
Flight info
| Callsign | FLE1614 |
|---|---|
| Flight time | 0h 59m |
| Altitude | 33000 |
| Route | KEPTA3 BMPAH DCT AEVON DCT EXTOL Q140 MEMMS PUCKY1 |
| Aircraft | B738/M-SDE2E3FGHIRWXY/LB1 |
Departure
| Time | 2026-05-07 18:38 |
|---|---|
| Airport | Toronto Pearson International Airport (CYYZ) |
Arrival
| Time | 2026-05-07 19:37 |
|---|---|
| Airport | John F. Kennedy International Airport (KJFK) |
| Time | Latitude | Longitude | Altitude | Speed | Heading |
|---|---|---|---|---|---|
| 2026-05-07 18:03 | 43.68360 | -79.62067 | 560 ft | 0 kts | 111° |
| 2026-05-07 18:25 | 43.68368 | -79.62093 | 568 ft | 4 kts | 111° |
| 2026-05-07 18:26 | 43.68377 | -79.62128 | 562 ft | 4 kts | 111° |
| 2026-05-07 18:26 | 43.68386 | -79.62158 | 570 ft | 4 kts | 120° |
| 2026-05-07 18:26 | 43.68403 | -79.62179 | 564 ft | 4 kts | 172° |
| 2026-05-07 18:26 | 43.68426 | -79.62177 | 568 ft | 1 kts | 196° |
| 2026-05-07 18:27 | 43.68430 | -79.62176 | 569 ft | 0 kts | 196° |
| 2026-05-07 18:29 | 43.68428 | -79.62176 | 568 ft | 1 kts | 196° |
| 2026-05-07 18:30 | 43.68405 | -79.62186 | 569 ft | 7 kts | 197° |
| 2026-05-07 18:30 | 43.68380 | -79.62201 | 566 ft | 0 kts | 210° |
| 2026-05-07 18:30 | 43.68375 | -79.62205 | 564 ft | 2 kts | 210° |
| 2026-05-07 18:31 | 43.68355 | -79.62224 | 560 ft | 5 kts | 223° |
| 2026-05-07 18:31 | 43.68322 | -79.62271 | 565 ft | 9 kts | 226° |
| 2026-05-07 18:31 | 43.68289 | -79.62351 | 564 ft | 11 kts | 260° |
| 2026-05-07 18:31 | 43.68266 | -79.62446 | 561 ft | 11 kts | 273° |
| 2026-05-07 18:32 | 43.68308 | -79.62524 | 561 ft | 10 kts | 313° |
| 2026-05-07 18:32 | 43.68358 | -79.62592 | 561 ft | 10 kts | 318° |
| 2026-05-07 18:32 | 43.68408 | -79.62656 | 566 ft | 10 kts | 316° |
| 2026-05-07 18:32 | 43.68456 | -79.62720 | 566 ft | 9 kts | 317° |
| 2026-05-07 18:33 | 43.68503 | -79.62779 | 561 ft | 9 kts | 317° |
| 2026-05-07 18:33 | 43.68548 | -79.62839 | 565 ft | 9 kts | 316° |
| 2026-05-07 18:33 | 43.68593 | -79.62898 | 560 ft | 9 kts | 316° |
| 2026-05-07 18:33 | 43.68647 | -79.62967 | 564 ft | 12 kts | 317° |
| 2026-05-07 18:34 | 43.68727 | -79.63072 | 561 ft | 19 kts | 316° |
| 2026-05-07 18:34 | 43.68832 | -79.63208 | 561 ft | 22 kts | 316° |
| 2026-05-07 18:34 | 43.68945 | -79.63358 | 563 ft | 20 kts | 316° |
| 2026-05-07 18:34 | 43.69042 | -79.63483 | 563 ft | 15 kts | 316° |
| 2026-05-07 18:35 | 43.69123 | -79.63524 | 570 ft | 12 kts | 34° |
| 2026-05-07 18:35 | 43.69196 | -79.63431 | 568 ft | 14 kts | 21° |
| 2026-05-07 18:35 | 43.69293 | -79.63420 | 567 ft | 13 kts | 1° |
| 2026-05-07 18:35 | 43.69345 | -79.63423 | 561 ft | 0 kts | 350° |
| 2026-05-07 18:36 | 43.69358 | -79.63428 | 565 ft | 5 kts | 341° |
| 2026-05-07 18:36 | 43.69400 | -79.63480 | 560 ft | 9 kts | 300° |
| 2026-05-07 18:37 | 43.69376 | -79.63563 | 562 ft | 10 kts | 230° |
| 2026-05-07 18:37 | 43.69290 | -79.63689 | 562 ft | 36 kts | 227° |
| 2026-05-07 18:37 | 43.68951 | -79.64182 | 566 ft | 104 kts | 227° |
| 2026-05-07 18:37 | 43.68303 | -79.65103 | 576 ft | 160 kts | 228° |
| 2026-05-07 18:38 | 43.67501 | -79.66199 | 1203 ft | 157 kts | 230° |
| 2026-05-07 18:38 | 43.66820 | -79.67334 | 2071 ft | 154 kts | 238° |
| 2026-05-07 18:38 | 43.66198 | -79.68606 | 2609 ft | 168 kts | 239° |
| 2026-05-07 18:38 | 43.65564 | -79.70047 | 3182 ft | 179 kts | 243° |
| 2026-05-07 18:39 | 43.64970 | -79.71583 | 3893 ft | 185 kts | 245° |
| 2026-05-07 18:39 | 43.64356 | -79.73217 | 4309 ft | 199 kts | 245° |
| 2026-05-07 18:39 | 43.63665 | -79.74914 | 4696 ft | 213 kts | 234° |
| 2026-05-07 18:39 | 43.62372 | -79.76089 | 4965 ft | 237 kts | 198° |
| 2026-05-07 18:40 | 43.60678 | -79.76111 | 5316 ft | 259 kts | 167° |
| 2026-05-07 18:40 | 43.59093 | -79.74823 | 5750 ft | 278 kts | 137° |
| 2026-05-07 18:40 | 43.57860 | -79.72767 | 6524 ft | 282 kts | 128° |
| 2026-05-07 18:40 | 43.56716 | -79.70564 | 7336 ft | 284 kts | 127° |
| 2026-05-07 18:41 | 43.55551 | -79.68337 | 8033 ft | 290 kts | 129° |
| 2026-05-07 18:41 | 43.54285 | -79.66147 | 8738 ft | 293 kts | 137° |
| 2026-05-07 18:41 | 43.52835 | -79.64166 | 9560 ft | 294 kts | 139° |
| 2026-05-07 18:41 | 43.51351 | -79.62209 | 10263 ft | 299 kts | 140° |
| 2026-05-07 18:42 | 43.49798 | -79.60178 | 10514 ft | 320 kts | 140° |
| 2026-05-07 18:42 | 43.48122 | -79.58002 | 10696 ft | 342 kts | 140° |
| 2026-05-07 18:42 | 43.46350 | -79.55708 | 11087 ft | 355 kts | 140° |
| 2026-05-07 18:42 | 43.44552 | -79.53378 | 11662 ft | 362 kts | 140° |
| 2026-05-07 18:43 | 43.42713 | -79.50977 | 12341 ft | 368 kts | 138° |
| 2026-05-07 18:43 | 43.41237 | -79.48045 | 12975 ft | 382 kts | 113° |
| 2026-05-07 18:43 | 43.40763 | -79.44432 | 13650 ft | 390 kts | 87° |
| 2026-05-07 18:43 | 43.41392 | -79.40817 | 14272 ft | 392 kts | 64° |
| 2026-05-07 18:44 | 43.42231 | -79.37231 | 14890 ft | 400 kts | 82° |
| 2026-05-07 18:44 | 43.42404 | -79.33398 | 15552 ft | 405 kts | 88° |
| 2026-05-07 18:44 | 43.42581 | -79.29513 | 16213 ft | 410 kts | 84° |
| 2026-05-07 18:44 | 43.42899 | -79.25596 | 16872 ft | 415 kts | 82° |
| 2026-05-07 18:45 | 43.43290 | -79.21690 | 17512 ft | 420 kts | 81° |
| 2026-05-07 18:45 | 43.43691 | -79.17686 | 18161 ft | 425 kts | 84° |
| 2026-05-07 18:45 | 43.43700 | -79.13615 | 18709 ft | 428 kts | 98° |
| 2026-05-07 18:45 | 43.43136 | -79.09590 | 19286 ft | 429 kts | 109° |
| 2026-05-07 18:46 | 43.42079 | -79.05757 | 19863 ft | 429 kts | 117° |
| 2026-05-07 18:46 | 43.40871 | -79.01987 | 20379 ft | 434 kts | 118° |
| 2026-05-07 18:46 | 43.39641 | -78.98185 | 20885 ft | 438 kts | 118° |
| 2026-05-07 18:46 | 43.38409 | -78.94333 | 21477 ft | 441 kts | 118° |
| 2026-05-07 18:47 | 43.37198 | -78.90498 | 22021 ft | 445 kts | 118° |
| 2026-05-07 18:47 | 43.35955 | -78.86522 | 22565 ft | 449 kts | 118° |
| 2026-05-07 18:47 | 43.34740 | -78.82621 | 22963 ft | 454 kts | 118° |
| 2026-05-07 18:47 | 43.33487 | -78.78609 | 22936 ft | 457 kts | 118° |
| 2026-05-07 18:48 | 43.32238 | -78.74613 | 22958 ft | 454 kts | 118° |
| 2026-05-07 18:48 | 43.30996 | -78.70647 | 22950 ft | 451 kts | 118° |
| 2026-05-07 18:48 | 43.29750 | -78.66685 | 22953 ft | 454 kts | 119° |
| 2026-05-07 18:48 | 43.28484 | -78.62678 | 23209 ft | 461 kts | 119° |
| 2026-05-07 18:49 | 43.27207 | -78.58631 | 23762 ft | 462 kts | 119° |
| 2026-05-07 18:49 | 43.25929 | -78.54579 | 24223 ft | 464 kts | 119° |
| 2026-05-07 18:49 | 43.24658 | -78.50559 | 24538 ft | 469 kts | 120° |
| 2026-05-07 18:49 | 43.23346 | -78.46419 | 24805 ft | 476 kts | 120° |
| 2026-05-07 18:50 | 43.22021 | -78.42234 | 25169 ft | 480 kts | 120° |
| 2026-05-07 18:50 | 43.20689 | -78.38033 | 25556 ft | 483 kts | 120° |
| 2026-05-07 18:50 | 43.19301 | -78.33825 | 25910 ft | 483 kts | 125° |
| 2026-05-07 18:50 | 43.17568 | -78.29914 | 26218 ft | 476 kts | 136° |
| 2026-05-07 18:51 | 43.15492 | -78.26401 | 26593 ft | 474 kts | 139° |
| 2026-05-07 18:51 | 43.13363 | -78.22942 | 26943 ft | 477 kts | 140° |
| 2026-05-07 18:51 | 43.11213 | -78.19453 | 27283 ft | 481 kts | 140° |
| 2026-05-07 18:51 | 43.09086 | -78.15968 | 27603 ft | 485 kts | 140° |
| 2026-05-07 18:52 | 43.06933 | -78.12404 | 27929 ft | 489 kts | 140° |
| 2026-05-07 18:52 | 43.04765 | -78.08793 | 28259 ft | 492 kts | 140° |
| 2026-05-07 18:52 | 43.02593 | -78.05169 | 28576 ft | 495 kts | 140° |
| 2026-05-07 18:52 | 43.00402 | -78.01514 | 28875 ft | 498 kts | 140° |
| 2026-05-07 18:53 | 42.98196 | -77.97838 | 29127 ft | 502 kts | 140° |
| 2026-05-07 18:53 | 42.95978 | -77.94155 | 29384 ft | 505 kts | 140° |
| 2026-05-07 18:53 | 42.93752 | -77.90421 | 29648 ft | 512 kts | 137° |
| 2026-05-07 18:53 | 42.91813 | -77.86331 | 29952 ft | 528 kts | 128° |
| 2026-05-07 18:54 | 42.90259 | -77.81746 | 30330 ft | 539 kts | 117° |
| 2026-05-07 18:54 | 42.89169 | -77.76824 | 30738 ft | 543 kts | 111° |
| 2026-05-07 18:54 | 42.88215 | -77.71841 | 31154 ft | 542 kts | 111° |
| 2026-05-07 18:54 | 42.87292 | -77.66879 | 31582 ft | 539 kts | 110° |
| 2026-05-07 18:55 | 42.86363 | -77.61937 | 32051 ft | 536 kts | 111° |
| 2026-05-07 18:55 | 42.85423 | -77.57057 | 32518 ft | 531 kts | 111° |
| 2026-05-07 18:55 | 42.84469 | -77.52221 | 32959 ft | 528 kts | 111° |
| 2026-05-07 18:56 | 42.82514 | -77.42572 | 32936 ft | 532 kts | 112° |
| 2026-05-07 18:56 | 42.80578 | -77.33084 | 32925 ft | 525 kts | 112° |
| 2026-05-07 18:57 | 42.78672 | -77.23768 | 32939 ft | 525 kts | 112° |
| 2026-05-07 18:57 | 42.76707 | -77.14197 | 32931 ft | 525 kts | 112° |
| 2026-05-07 18:58 | 42.74746 | -77.04681 | 32935 ft | 526 kts | 112° |
| 2026-05-07 18:58 | 42.72764 | -76.95105 | 32927 ft | 526 kts | 112° |
| 2026-05-07 18:59 | 42.70773 | -76.85530 | 32896 ft | 526 kts | 112° |
| 2026-05-07 18:59 | 42.68777 | -76.75973 | 32923 ft | 526 kts | 112° |
| 2026-05-07 19:00 | 42.66773 | -76.66417 | 32936 ft | 526 kts | 113° |
| 2026-05-07 19:00 | 42.64044 | -76.57459 | 32935 ft | 507 kts | 130° |
| 2026-05-07 19:01 | 42.60319 | -76.49398 | 32911 ft | 504 kts | 131° |
| 2026-05-07 19:01 | 42.56606 | -76.41316 | 32936 ft | 506 kts | 131° |
| 2026-05-07 19:02 | 42.52956 | -76.33196 | 32921 ft | 508 kts | 130° |
| 2026-05-07 19:02 | 42.49267 | -76.25025 | 32935 ft | 509 kts | 131° |
| 2026-05-07 19:03 | 42.45548 | -76.16844 | 32923 ft | 511 kts | 131° |
| 2026-05-07 19:03 | 42.41818 | -76.08651 | 32900 ft | 511 kts | 131° |
| 2026-05-07 19:04 | 42.38082 | -76.00464 | 32897 ft | 511 kts | 131° |
| 2026-05-07 19:04 | 42.34378 | -75.92367 | 32908 ft | 510 kts | 131° |
| 2026-05-07 19:05 | 42.30642 | -75.84221 | 32907 ft | 510 kts | 131° |
| 2026-05-07 19:05 | 42.26900 | -75.76084 | 32897 ft | 510 kts | 131° |
| 2026-05-07 19:06 | 42.23156 | -75.67953 | 32930 ft | 509 kts | 131° |
| 2026-05-07 19:06 | 42.17566 | -75.55843 | 32918 ft | 509 kts | 132° |
| 2026-05-07 19:07 | 42.13823 | -75.47759 | 32923 ft | 508 kts | 132° |
| 2026-05-07 19:07 | 42.10096 | -75.39730 | 32896 ft | 508 kts | 133° |
| 2026-05-07 19:08 | 42.06503 | -75.31502 | 32869 ft | 522 kts | 120° |
| 2026-05-07 19:08 | 42.05601 | -75.26688 | 32938 ft | 540 kts | 105° |
| 2026-05-07 19:08 | 42.05112 | -75.21665 | 32923 ft | 542 kts | 103° |
| 2026-05-07 19:09 | 42.04218 | -75.11659 | 32920 ft | 543 kts | 103° |
| 2026-05-07 19:09 | 42.03234 | -75.01584 | 32904 ft | 543 kts | 105° |
| 2026-05-07 19:10 | 42.02174 | -74.91536 | 32928 ft | 543 kts | 105° |
| 2026-05-07 19:10 | 42.01090 | -74.81465 | 32913 ft | 544 kts | 105° |
| 2026-05-07 19:11 | 42.00017 | -74.71483 | 32921 ft | 543 kts | 105° |
| 2026-05-07 19:11 | 41.98932 | -74.61440 | 32908 ft | 542 kts | 105° |
| 2026-05-07 19:12 | 41.97837 | -74.51440 | 32901 ft | 539 kts | 107° |
| 2026-05-07 19:12 | 41.96854 | -74.46680 | 32888 ft | 519 kts | 124° |
| 2026-05-07 19:12 | 41.95080 | -74.42584 | 32864 ft | 498 kts | 140° |
| 2026-05-07 19:13 | 41.90810 | -74.35211 | 32620 ft | 504 kts | 143° |
| 2026-05-07 19:13 | 41.88536 | -74.31565 | 31965 ft | 512 kts | 143° |
| 2026-05-07 19:13 | 41.86347 | -74.27868 | 31318 ft | 513 kts | 141° |
| 2026-05-07 19:14 | 41.84182 | -74.24043 | 30553 ft | 516 kts | 140° |
| 2026-05-07 19:14 | 41.82030 | -74.20199 | 29957 ft | 513 kts | 140° |
| 2026-05-07 19:14 | 41.79898 | -74.16416 | 29361 ft | 506 kts | 140° |
| 2026-05-07 19:14 | 41.77773 | -74.12694 | 28821 ft | 499 kts | 141° |
| 2026-05-07 19:15 | 41.75633 | -74.09114 | 28312 ft | 479 kts | 148° |
| 2026-05-07 19:15 | 41.73131 | -74.06531 | 27883 ft | 433 kts | 167° |
| 2026-05-07 19:15 | 41.70458 | -74.05061 | 27399 ft | 404 kts | 178° |
| 2026-05-07 19:15 | 41.67817 | -74.04283 | 26849 ft | 384 kts | 187° |
| 2026-05-07 19:16 | 41.65228 | -74.04160 | 26356 ft | 360 kts | 198° |
| 2026-05-07 19:16 | 41.62778 | -74.04521 | 25911 ft | 352 kts | 199° |
| 2026-05-07 19:16 | 41.60356 | -74.04918 | 25443 ft | 348 kts | 199° |
| 2026-05-07 19:16 | 41.57970 | -74.05310 | 24993 ft | 345 kts | 199° |
| 2026-05-07 19:17 | 41.55600 | -74.05694 | 24552 ft | 342 kts | 199° |
| 2026-05-07 19:17 | 41.53246 | -74.06068 | 24109 ft | 339 kts | 199° |
| 2026-05-07 19:17 | 41.50907 | -74.06434 | 23675 ft | 337 kts | 199° |
| 2026-05-07 19:17 | 41.48585 | -74.06795 | 23146 ft | 336 kts | 198° |
| 2026-05-07 19:18 | 41.46303 | -74.07148 | 22682 ft | 334 kts | 198° |
| 2026-05-07 19:18 | 41.44000 | -74.07503 | 22251 ft | 331 kts | 198° |
| 2026-05-07 19:18 | 41.41711 | -74.07856 | 21810 ft | 333 kts | 198° |
| 2026-05-07 19:18 | 41.39366 | -74.08224 | 21373 ft | 344 kts | 197° |
| 2026-05-07 19:19 | 41.36979 | -74.08622 | 20918 ft | 344 kts | 200° |
| 2026-05-07 19:19 | 41.34772 | -74.09581 | 20429 ft | 326 kts | 214° |
| 2026-05-07 19:19 | 41.32852 | -74.11089 | 19997 ft | 317 kts | 219° |
| 2026-05-07 19:19 | 41.31009 | -74.12678 | 19554 ft | 314 kts | 219° |
| 2026-05-07 19:20 | 41.29196 | -74.14263 | 19107 ft | 310 kts | 220° |
| 2026-05-07 19:20 | 41.27403 | -74.15822 | 18730 ft | 306 kts | 220° |
| 2026-05-07 19:20 | 41.25646 | -74.17342 | 18336 ft | 304 kts | 219° |
| 2026-05-07 19:20 | 41.23880 | -74.18861 | 17893 ft | 302 kts | 219° |
| 2026-05-07 19:21 | 41.22126 | -74.20363 | 17485 ft | 298 kts | 219° |
| 2026-05-07 19:21 | 41.20392 | -74.21843 | 17071 ft | 295 kts | 219° |
| 2026-05-07 19:21 | 41.18676 | -74.23306 | 16690 ft | 293 kts | 219° |
| 2026-05-07 19:21 | 41.16964 | -74.24765 | 16361 ft | 291 kts | 219° |
| 2026-05-07 19:22 | 41.15267 | -74.26209 | 16047 ft | 292 kts | 219° |
| 2026-05-07 19:22 | 41.13385 | -74.27369 | 15459 ft | 313 kts | 200° |
| 2026-05-07 19:22 | 41.11157 | -74.27438 | 14897 ft | 335 kts | 183° |
| 2026-05-07 19:22 | 41.08865 | -74.26593 | 14386 ft | 354 kts | 165° |
| 2026-05-07 19:23 | 41.06693 | -74.24985 | 13971 ft | 358 kts | 159° |
| 2026-05-07 19:23 | 41.04578 | -74.23260 | 13501 ft | 357 kts | 159° |
| 2026-05-07 19:23 | 41.02464 | -74.21518 | 12949 ft | 357 kts | 158° |
| 2026-05-07 19:23 | 41.00360 | -74.19802 | 12416 ft | 357 kts | 158° |
| 2026-05-07 19:24 | 40.98232 | -74.18089 | 11889 ft | 356 kts | 158° |
| 2026-05-07 19:24 | 40.96107 | -74.16408 | 11384 ft | 356 kts | 158° |
| 2026-05-07 19:24 | 40.93999 | -74.14706 | 10922 ft | 355 kts | 156° |
| 2026-05-07 19:24 | 40.91911 | -74.13037 | 10418 ft | 357 kts | 154° |
| 2026-05-07 19:25 | 40.90017 | -74.10860 | 10110 ft | 371 kts | 133° |
| 2026-05-07 19:25 | 40.88572 | -74.07989 | 10076 ft | 375 kts | 126° |
| 2026-05-07 19:25 | 40.87193 | -74.05075 | 10007 ft | 372 kts | 126° |
| 2026-05-07 19:25 | 40.85827 | -74.02215 | 9852 ft | 365 kts | 127° |
| 2026-05-07 19:26 | 40.84489 | -73.99436 | 9772 ft | 350 kts | 127° |
| 2026-05-07 19:26 | 40.83209 | -73.96795 | 9621 ft | 332 kts | 127° |
| 2026-05-07 19:26 | 40.81993 | -73.94302 | 9492 ft | 315 kts | 127° |
| 2026-05-07 19:26 | 40.80850 | -73.91965 | 9349 ft | 301 kts | 128° |
| 2026-05-07 19:27 | 40.79728 | -73.89680 | 9023 ft | 295 kts | 128° |
| 2026-05-07 19:27 | 40.78618 | -73.87426 | 8637 ft | 292 kts | 127° |
| 2026-05-07 19:27 | 40.77491 | -73.85228 | 8303 ft | 286 kts | 129° |
| 2026-05-07 19:27 | 40.76332 | -73.83126 | 7952 ft | 282 kts | 129° |
| 2026-05-07 19:28 | 40.75181 | -73.81056 | 7604 ft | 278 kts | 128° |
| 2026-05-07 19:28 | 40.74067 | -73.78997 | 7253 ft | 274 kts | 126° |
| 2026-05-07 19:28 | 40.73005 | -73.76928 | 6917 ft | 270 kts | 124° |
| 2026-05-07 19:28 | 40.71976 | -73.74880 | 6568 ft | 266 kts | 122° |
| 2026-05-07 19:29 | 40.71059 | -73.72820 | 6276 ft | 261 kts | 120° |
| 2026-05-07 19:29 | 40.70145 | -73.70776 | 5939 ft | 257 kts | 121° |
| 2026-05-07 19:29 | 40.69242 | -73.68747 | 5495 ft | 256 kts | 120° |
| 2026-05-07 19:29 | 40.68319 | -73.66751 | 5117 ft | 254 kts | 122° |
| 2026-05-07 19:30 | 40.67372 | -73.64795 | 4721 ft | 252 kts | 121° |
| 2026-05-07 19:30 | 40.66445 | -73.62832 | 4290 ft | 251 kts | 120° |
| 2026-05-07 19:30 | 40.65554 | -73.60872 | 3933 ft | 246 kts | 120° |
| 2026-05-07 19:30 | 40.64813 | -73.59262 | 3777 ft | 237 kts | 120° |
| 2026-05-07 19:31 | 40.63983 | -73.57500 | 3426 ft | 236 kts | 121° |
| 2026-05-07 19:31 | 40.63113 | -73.55667 | 3080 ft | 236 kts | 121° |
| 2026-05-07 19:31 | 40.62212 | -73.53885 | 3021 ft | 240 kts | 131° |
| 2026-05-07 19:31 | 40.60811 | -73.52836 | 3004 ft | 236 kts | 176° |
| 2026-05-07 19:32 | 40.59262 | -73.53233 | 3012 ft | 225 kts | 207° |
| 2026-05-07 19:32 | 40.58031 | -73.54430 | 2996 ft | 216 kts | 230° |
| 2026-05-07 19:32 | 40.57295 | -73.55956 | 3000 ft | 192 kts | 248° |
| 2026-05-07 19:32 | 40.56858 | -73.57342 | 2974 ft | 175 kts | 259° |
| 2026-05-07 19:33 | 40.56847 | -73.58804 | 3001 ft | 153 kts | 284° |
| 2026-05-07 19:33 | 40.57290 | -73.60090 | 2858 ft | 160 kts | 300° |
| 2026-05-07 19:33 | 40.57834 | -73.61380 | 2631 ft | 165 kts | 301° |
| 2026-05-07 19:33 | 40.58402 | -73.62672 | 2399 ft | 162 kts | 301° |
| 2026-05-07 19:34 | 40.58975 | -73.63921 | 2175 ft | 160 kts | 301° |
| 2026-05-07 19:34 | 40.59535 | -73.65183 | 1959 ft | 161 kts | 300° |
| 2026-05-07 19:34 | 40.60099 | -73.66454 | 1748 ft | 161 kts | 300° |
| 2026-05-07 19:34 | 40.60661 | -73.67703 | 1495 ft | 153 kts | 300° |
| 2026-05-07 19:35 | 40.61197 | -73.68883 | 1320 ft | 150 kts | 301° |
| 2026-05-07 19:35 | 40.61732 | -73.70047 | 1114 ft | 148 kts | 303° |
| 2026-05-07 19:35 | 40.62264 | -73.71170 | 898 ft | 143 kts | 298° |
| 2026-05-07 19:35 | 40.62735 | -73.72318 | 700 ft | 148 kts | 301° |
| 2026-05-07 19:36 | 40.63262 | -73.73504 | 521 ft | 151 kts | 303° |
| 2026-05-07 19:36 | 40.63796 | -73.74661 | 318 ft | 143 kts | 304° |
| 2026-05-07 19:36 | 40.64286 | -73.75756 | 108 ft | 137 kts | 305° |
| 2026-05-07 19:36 | 40.64763 | -73.76787 | 21 ft | 122 kts | 301° |
| 2026-05-07 19:37 | 40.65032 | -73.77379 | 19 ft | 50 kts | 302° |
| 2026-05-07 19:37 | 40.65175 | -73.77694 | 18 ft | 12 kts | 301° |
| 2026-05-07 19:37 | 40.65215 | -73.77785 | 19 ft | 11 kts | 301° |
| 2026-05-07 19:37 | 40.65227 | -73.77882 | 19 ft | 11 kts | 254° |
| 2026-05-07 19:38 | 40.65187 | -73.77945 | 20 ft | 6 kts | 221° |
| 2026-05-07 19:38 | 40.65167 | -73.77949 | 19 ft | 2 kts | 158° |
| 2026-05-07 19:38 | 40.65150 | -73.77925 | 19 ft | 5 kts | 124° |
| 2026-05-07 19:38 | 40.65122 | -73.77859 | 19 ft | 10 kts | 120° |
| 2026-05-07 19:39 | 40.65083 | -73.77777 | 20 ft | 10 kts | 122° |
| 2026-05-07 19:39 | 40.65050 | -73.77708 | 19 ft | 8 kts | 119° |
| 2026-05-07 19:39 | 40.65025 | -73.77648 | 19 ft | 7 kts | 119° |
| 2026-05-07 19:39 | 40.65008 | -73.77610 | 19 ft | 7 kts | 120° |
| 2026-05-07 19:40 | 40.64976 | -73.77537 | 19 ft | 7 kts | 120° |
| 2026-05-07 19:40 | 40.64951 | -73.77483 | 19 ft | 7 kts | 122° |
| 2026-05-07 19:40 | 40.64924 | -73.77426 | 19 ft | 9 kts | 122° |
| 2026-05-07 19:40 | 40.64883 | -73.77336 | 20 ft | 13 kts | 121° |
| 2026-05-07 19:41 | 40.64834 | -73.77231 | 20 ft | 14 kts | 121° |
| 2026-05-07 19:41 | 40.64778 | -73.77105 | 20 ft | 17 kts | 120° |
| 2026-05-07 19:41 | 40.64683 | -73.77003 | 19 ft | 17 kts | 158° |
| 2026-05-07 19:41 | 40.64568 | -73.76988 | 19 ft | 16 kts | 180° |
| 2026-05-07 19:42 | 40.64471 | -73.76988 | 19 ft | 13 kts | 180° |
| 2026-05-07 19:42 | 40.64429 | -73.77071 | 19 ft | 12 kts | 278° |
| 2026-05-07 19:42 | 40.64445 | -73.77161 | 21 ft | 8 kts | 284° |
| 2026-05-07 19:42 | 40.64470 | -73.77223 | 19 ft | 7 kts | 309° |
| 2026-05-07 19:43 | 40.64512 | -73.77238 | 20 ft | 4 kts | 3° |
| 2026-05-07 19:43 | 40.64525 | -73.77237 | 20 ft | 1 kts | 1° |
| 2026-05-07 19:43 | 40.64531 | -73.77237 | 20 ft | 0 kts | 1° |